createdAt,value
2019-02-26T00:01:21.067Z,87.00
2019-02-26T00:03:54.053Z,86.60
2019-02-26T00:06:28.359Z,87.70
2019-02-26T00:09:03.800Z,86.40
2019-02-26T00:11:38.421Z,85.60
2019-02-26T00:14:15.509Z,86.20
2019-02-26T00:16:48.752Z,86.90
2019-02-26T00:19:21.934Z,86.60
2019-02-26T00:21:54.959Z,85.60
2019-02-26T00:24:30.579Z,85.80
2019-02-26T00:27:03.788Z,86.70
2019-02-26T00:29:38.052Z,86.40
2019-02-26T00:32:12.260Z,86.10
2019-02-26T00:34:45.984Z,87.20
2019-02-26T00:37:20.076Z,87.00
2019-02-26T00:39:54.524Z,87.50
2019-02-26T00:42:31.294Z,88.60
2019-02-26T00:45:05.828Z,89.10
2019-02-26T00:47:41.257Z,87.50
2019-02-26T00:50:16.682Z,86.60
2019-02-26T00:52:49.963Z,86.50
2019-02-26T00:55:26.980Z,88.60
2019-02-26T00:58:00.716Z,88.50
2019-02-26T01:00:33.634Z,88.70
2019-02-26T01:03:09.144Z,88.30
2019-02-26T01:05:43.652Z,88.00
2019-02-26T01:08:19.711Z,87.30
2019-02-26T01:10:52.616Z,88.30
2019-02-26T01:13:27.628Z,88.30
2019-02-26T01:16:00.509Z,88.30
2019-02-26T01:18:33.469Z,88.20
2019-02-26T01:21:06.484Z,88.80
2019-02-26T01:23:39.419Z,89.00
2019-02-26T01:26:12.609Z,88.90
2019-02-26T01:28:48.307Z,89.60
2019-02-26T01:31:22.261Z,90.10
2019-02-26T01:33:56.992Z,90.20
2019-02-26T01:36:29.655Z,90.40
2019-02-26T01:39:03.152Z,90.70
2019-02-26T01:41:36.389Z,90.30
2019-02-26T01:44:09.140Z,90.00
2019-02-26T01:46:42.098Z,90.30
2019-02-26T01:49:16.959Z,90.30
2019-02-26T01:51:51.680Z,90.40
2019-02-26T01:54:24.390Z,90.70
2019-02-26T01:56:57.866Z,90.50
2019-02-26T01:59:31.751Z,90.40
2019-02-26T02:02:05.283Z,90.80
2019-02-26T02:04:40.617Z,90.80
2019-02-26T02:07:12.931Z,90.20
2019-02-26T02:09:48.641Z,90.00
2019-02-26T02:12:20.453Z,90.80
2019-02-26T02:14:53.431Z,90.30
2019-02-26T02:17:26.297Z,90.70
2019-02-26T02:20:03.115Z,90.90
2019-02-26T02:22:35.296Z,90.40
2019-02-26T02:25:09.581Z,90.60
2019-02-26T02:27:42.451Z,91.10
2019-02-26T02:30:22.301Z,90.90
2019-02-26T02:32:55.041Z,91.30
2019-02-26T02:35:26.254Z,91.30
2019-02-26T02:38:01.977Z,91.40
2019-02-26T02:40:34.970Z,91.40
2019-02-26T02:43:10.029Z,92.00
2019-02-26T02:45:42.388Z,91.90
2019-02-26T02:48:15.579Z,91.80
2019-02-26T02:50:48.468Z,91.10
2019-02-26T02:53:23.941Z,91.30
2019-02-26T02:55:55.862Z,91.30
2019-02-26T02:58:29.521Z,91.40
2019-02-26T03:01:02.550Z,91.50
2019-02-26T03:03:35.410Z,91.60
2019-02-26T03:06:09.678Z,91.70
2019-02-26T03:08:45.124Z,91.40
2019-02-26T03:11:17.416Z,91.20
2019-02-26T03:13:51.247Z,91.60
2019-02-26T03:16:27.163Z,91.90
2019-02-26T03:19:00.401Z,91.40
2019-02-26T03:21:33.468Z,91.60
2019-02-26T03:24:08.615Z,91.20
2019-02-26T03:26:41.727Z,91.60
2019-02-26T03:29:14.611Z,91.60
2019-02-26T03:31:54.666Z,91.80
2019-02-26T03:34:25.314Z,91.70
2019-02-26T03:36:59.838Z,91.30
2019-02-26T03:39:32.470Z,91.60
2019-02-26T03:42:05.515Z,91.40
2019-02-26T03:44:38.518Z,91.80
2019-02-26T03:47:11.662Z,91.70
2019-02-26T03:49:44.584Z,91.60
2019-02-26T03:52:17.591Z,91.60
2019-02-26T03:54:51.989Z,91.30
2019-02-26T03:57:25.301Z,91.60
2019-02-26T03:59:59.554Z,92.00
2019-02-26T04:02:32.798Z,91.80
2019-02-26T04:05:08.843Z,91.80
2019-02-26T04:07:41.854Z,91.70
2019-02-26T04:10:15.291Z,91.80
2019-02-26T04:12:51.823Z,91.80
2019-02-26T04:15:26.632Z,91.90
2019-02-26T04:17:57.524Z,92.60
2019-02-26T04:20:32.023Z,91.80
2019-02-26T04:23:05.285Z,91.70
2019-02-26T04:27:01.166Z,91.50
2019-02-26T04:30:16.269Z,91.50
2019-02-26T04:33:53.051Z,91.90
2019-02-26T04:37:44.528Z,92.10
2019-02-26T04:40:41.041Z,92.20
2019-02-26T04:44:03.800Z,92.30
2019-02-26T04:47:03.555Z,92.60
2019-02-26T04:49:39.222Z,92.40
2019-02-26T04:52:14.310Z,92.60
2019-02-26T04:54:46.715Z,92.90
2019-02-26T04:57:20.076Z,93.00
2019-02-26T04:59:55.483Z,93.00
2019-02-26T05:02:27.862Z,93.00
2019-02-26T05:05:00.714Z,93.00
2019-02-26T05:07:35.598Z,93.20
2019-02-26T05:10:09.441Z,94.20
2019-02-26T05:12:42.813Z,93.50
2019-02-26T05:15:19.813Z,93.30
2019-02-26T05:17:52.283Z,93.40
2019-02-26T05:20:26.266Z,93.10
2019-02-26T05:23:01.052Z,93.00
2019-02-26T05:25:35.092Z,92.70
2019-02-26T05:28:10.077Z,92.70
2019-02-26T05:30:46.424Z,92.80
2019-02-26T05:33:21.574Z,92.70
2019-02-26T05:35:53.751Z,92.50
2019-02-26T05:38:30.586Z,92.80
2019-02-26T05:41:03.617Z,92.40
2019-02-26T05:43:37.115Z,92.60
2019-02-26T05:46:10.103Z,91.70
2019-02-26T05:48:45.764Z,91.50
2019-02-26T05:51:19.108Z,91.10
2019-02-26T05:53:52.195Z,90.50
2019-02-26T05:56:27.200Z,90.10
2019-02-26T05:59:04.342Z,90.10
2019-02-26T06:01:35.099Z,88.90
2019-02-26T06:04:10.076Z,88.20
2019-02-26T06:06:43.012Z,87.20
2019-02-26T06:09:19.454Z,86.00
2019-02-26T06:11:53.146Z,85.60
2019-02-26T06:14:27.564Z,85.40
2019-02-26T06:17:01.010Z,85.20
2019-02-26T06:19:49.655Z,84.00
2019-02-26T06:22:26.061Z,83.70
2019-02-26T06:25:00.265Z,81.90
2019-02-26T06:27:33.244Z,82.20
2019-02-26T06:30:09.973Z,80.50
2019-02-26T06:32:44.692Z,80.00
2019-02-26T06:35:19.496Z,80.00
2019-02-26T06:37:52.759Z,78.80
2019-02-26T06:40:27.801Z,79.60
2019-02-26T06:43:00.913Z,77.30
2019-02-26T06:45:35.593Z,75.70
2019-02-26T06:48:12.621Z,77.80
2019-02-26T06:50:43.759Z,75.80
2019-02-26T06:53:19.320Z,75.90
2019-02-26T06:55:51.914Z,74.00
2019-02-26T06:58:29.643Z,73.80
2019-02-26T07:01:02.886Z,72.70
2019-02-26T07:03:36.012Z,72.40
2019-02-26T07:06:09.515Z,70.80
2019-02-26T07:08:44.511Z,68.90
2019-02-26T07:11:17.539Z,68.20
2019-02-26T07:13:50.532Z,67.40
2019-02-26T07:16:23.985Z,65.90
2019-02-26T07:18:56.943Z,66.40
2019-02-26T07:21:30.604Z,64.30
2019-02-26T07:24:04.037Z,66.60
2019-02-26T07:26:38.723Z,66.40
2019-02-26T07:29:16.651Z,65.80
2019-02-26T07:31:49.598Z,66.10
2019-02-26T07:34:23.183Z,63.60
2019-02-26T07:36:57.322Z,62.80
2019-02-26T07:39:30.257Z,63.90
2019-02-26T07:42:03.209Z,62.50
2019-02-26T07:44:36.622Z,62.90
2019-02-26T07:47:11.257Z,62.00
2019-02-26T07:49:44.618Z,61.40
2019-02-26T07:52:18.913Z,61.00
2019-02-26T07:54:52.122Z,60.60
2019-02-26T07:57:27.185Z,58.50
2019-02-26T08:00:00.332Z,57.60
2019-02-26T08:02:35.057Z,56.80
2019-02-26T08:05:09.970Z,55.30
2019-02-26T08:07:44.443Z,55.50
2019-02-26T08:10:19.718Z,56.40
2019-02-26T08:12:53.268Z,55.20
2019-02-26T08:15:27.846Z,54.80
2019-02-26T08:18:03.451Z,55.40
2019-02-26T08:20:37.596Z,56.80
2019-02-26T08:23:11.761Z,57.70
2019-02-26T08:25:44.766Z,58.60
2019-02-26T08:28:20.824Z,59.30
2019-02-26T08:30:55.221Z,59.90
2019-02-26T08:33:28.411Z,59.00
2019-02-26T08:36:01.684Z,57.70
2019-02-26T08:38:35.275Z,55.50
2019-02-26T08:41:08.779Z,56.20
2019-02-26T08:43:44.203Z,55.80
2019-02-26T08:46:18.826Z,55.10
2019-02-26T08:48:51.770Z,55.00
2019-02-26T08:51:24.977Z,54.50
2019-02-26T08:53:58.424Z,54.80
2019-02-26T08:56:34.286Z,54.60
2019-02-26T08:59:06.653Z,55.10
2019-02-26T09:01:39.668Z,54.80
2019-02-26T09:04:14.495Z,54.10
2019-02-26T09:06:47.816Z,54.40
2019-02-26T09:09:22.788Z,54.90
2019-02-26T09:11:57.997Z,54.40
2019-02-26T09:14:34.482Z,53.80
2019-02-26T09:17:05.371Z,54.50
2019-02-26T09:19:38.672Z,54.10
2019-02-26T09:22:14.939Z,53.60
2019-02-26T09:24:49.452Z,54.70
2019-02-26T09:27:24.351Z,55.10
2019-02-26T09:29:57.913Z,53.80
2019-02-26T09:32:32.659Z,53.80
2019-02-26T09:35:06.245Z,53.70
2019-02-26T09:37:39.189Z,53.50
2019-02-26T09:40:16.876Z,53.80
2019-02-26T09:42:52.360Z,53.80
2019-02-26T09:45:28.645Z,54.90
2019-02-26T09:48:01.198Z,55.10
2019-02-26T09:50:36.766Z,54.40
2019-02-26T09:53:09.405Z,54.40
2019-02-26T09:55:42.358Z,54.00
2019-02-26T09:58:16.406Z,55.40
2019-02-26T10:00:51.150Z,54.70
2019-02-26T10:03:26.789Z,54.10
2019-02-26T10:05:59.999Z,54.90
2019-02-26T10:08:32.843Z,54.70
2019-02-26T10:11:06.041Z,55.20
2019-02-26T10:13:41.482Z,54.30
2019-02-26T10:16:13.928Z,53.40
2019-02-26T10:18:47.881Z,53.20
2019-02-26T10:21:21.856Z,53.90
2019-02-26T10:23:56.875Z,53.40
2019-02-26T10:26:30.744Z,52.50
2019-02-26T10:29:04.973Z,51.90
2019-02-26T10:31:41.116Z,52.00
2019-02-26T10:34:15.644Z,52.50
2019-02-26T10:36:49.690Z,51.70
2019-02-26T10:39:25.176Z,52.30
2019-02-26T10:42:01.891Z,51.50
2019-02-26T10:44:32.407Z,50.80
2019-02-26T10:47:08.159Z,51.50
2019-02-26T10:49:40.355Z,52.60
2019-02-26T10:52:16.872Z,53.70
2019-02-26T10:54:50.199Z,52.80
2019-02-26T10:57:23.457Z,53.80
2019-02-26T10:59:59.190Z,53.30
2019-02-26T11:02:31.170Z,52.60
2019-02-26T11:05:04.165Z,52.40
2019-02-26T11:07:39.938Z,52.20
2019-02-26T11:10:14.488Z,50.60
2019-02-26T11:12:48.119Z,50.60
2019-02-26T11:15:23.847Z,50.10
2019-02-26T11:17:56.373Z,50.70
2019-02-26T11:20:30.952Z,51.20
2019-02-26T11:23:06.195Z,51.00
2019-02-26T11:25:38.420Z,51.60
2019-02-26T11:28:13.024Z,51.60
2019-02-26T11:30:46.551Z,51.40
2019-02-26T11:33:20.590Z,51.30
2019-02-26T11:35:53.721Z,50.10
2019-02-26T11:38:26.805Z,49.80
2019-02-26T11:40:59.899Z,49.30
2019-02-26T11:43:33.008Z,50.20
2019-02-26T11:46:06.850Z,51.40
2019-02-26T11:48:40.887Z,51.10
2019-02-26T11:51:16.833Z,50.30
2019-02-26T11:53:48.864Z,50.40
2019-02-26T11:56:25.792Z,50.60
2019-02-26T11:58:58.357Z,51.00
2019-02-26T12:01:32.179Z,51.00
2019-02-26T12:04:08.284Z,50.70
2019-02-26T12:06:41.142Z,51.80
2019-02-26T12:09:16.172Z,52.00
2019-02-26T12:11:49.236Z,52.20
2019-02-26T12:14:22.353Z,53.20
2019-02-26T12:16:55.385Z,53.30
2019-02-26T12:19:31.163Z,53.10
2019-02-26T12:22:05.867Z,53.50
2019-02-26T12:24:38.743Z,54.20
2019-02-26T12:27:16.186Z,53.90
2019-02-26T12:29:48.271Z,53.70
2019-02-26T12:32:22.348Z,54.40
2019-02-26T12:34:56.307Z,54.00
2019-02-26T12:37:29.405Z,55.00
2019-02-26T12:40:02.446Z,54.20
2019-02-26T12:42:35.845Z,54.70
2019-02-26T12:45:13.676Z,55.60
2019-02-26T12:47:48.625Z,54.90
2019-02-26T12:50:23.043Z,55.70
2019-02-26T12:52:57.036Z,55.80
2019-02-26T12:55:32.900Z,56.10
2019-02-26T12:58:05.400Z,56.20
2019-02-26T13:00:41.292Z,55.10
2019-02-26T13:03:15.908Z,55.90
2019-02-26T13:05:49.756Z,57.00
2019-02-26T13:08:24.332Z,56.90
2019-02-26T13:10:58.518Z,56.50
2019-02-26T13:13:31.707Z,57.00
2019-02-26T13:16:05.107Z,57.10
2019-02-26T13:18:38.124Z,58.00
2019-02-26T13:21:13.410Z,57.80
2019-02-26T13:23:48.095Z,58.40
2019-02-26T13:26:22.507Z,58.60
2019-02-26T13:29:00.048Z,58.60
2019-02-26T13:31:35.908Z,59.10
2019-02-26T13:34:05.583Z,59.00
2019-02-26T13:36:39.685Z,60.10
2019-02-26T13:39:21.843Z,58.60
2019-02-26T13:41:51.411Z,59.00
2019-02-26T13:44:22.919Z,58.90
2019-02-26T13:46:58.035Z,59.60
2019-02-26T13:49:31.669Z,59.90
2019-02-26T13:52:04.922Z,60.40
2019-02-26T13:54:38.211Z,60.90
2019-02-26T13:57:11.382Z,61.00
2019-02-26T13:59:45.061Z,60.30
2019-02-26T14:02:18.175Z,59.80
2019-02-26T14:04:51.270Z,60.60
2019-02-26T14:07:24.909Z,60.90
2019-02-26T14:09:58.303Z,60.70
2019-02-26T14:12:31.366Z,60.50
2019-02-26T14:15:04.605Z,60.90
2019-02-26T14:17:37.793Z,62.10
2019-02-26T14:20:11.785Z,60.90
2019-02-26T14:22:45.123Z,62.30
2019-02-26T14:25:18.894Z,62.80
2019-02-26T14:27:52.260Z,63.20
2019-02-26T14:30:26.010Z,62.90
2019-02-26T14:33:00.725Z,62.80
2019-02-26T14:35:34.234Z,62.70
2019-02-26T14:38:10.241Z,62.70
2019-02-26T14:40:43.645Z,63.20
2019-02-26T14:43:16.947Z,63.10
2019-02-26T14:45:50.203Z,63.20
2019-02-26T14:48:23.433Z,62.80
2019-02-26T14:50:57.317Z,63.10
2019-02-26T14:53:31.112Z,63.50
2019-02-26T14:56:04.444Z,63.40
2019-02-26T14:58:49.184Z,63.40
2019-02-26T15:01:22.746Z,64.30
2019-02-26T15:03:55.881Z,64.30
2019-02-26T15:06:29.306Z,64.70
2019-02-26T15:09:04.273Z,65.10
2019-02-26T15:11:37.596Z,64.70
2019-02-26T15:14:11.130Z,63.80
2019-02-26T15:16:44.593Z,64.00
2019-02-26T15:19:17.909Z,63.50
2019-02-26T15:21:51.593Z,64.20
2019-02-26T15:24:24.723Z,64.70
2019-02-26T15:26:58.329Z,64.00
2019-02-26T15:29:31.922Z,64.40
2019-02-26T15:32:05.635Z,63.40
2019-02-26T15:34:38.972Z,63.20
2019-02-26T15:37:12.086Z,63.70
2019-02-26T15:39:45.423Z,64.70
2019-02-26T15:42:20.956Z,65.30
2019-02-26T15:44:54.223Z,65.70
2019-02-26T15:47:27.908Z,65.20
2019-02-26T15:50:01.579Z,65.40
2019-02-26T15:52:36.386Z,66.00
2019-02-26T15:55:12.553Z,66.10
2019-02-26T15:57:45.760Z,67.20
2019-02-26T16:00:21.620Z,67.40
2019-02-26T16:02:59.024Z,68.00
2019-02-26T16:05:30.849Z,69.50
2019-02-26T16:08:04.501Z,68.70
2019-02-26T16:10:37.861Z,69.30
2019-02-26T16:13:10.915Z,70.20
2019-02-26T16:15:44.088Z,70.70
2019-02-26T16:18:20.604Z,71.90
2019-02-26T16:20:55.080Z,72.80
2019-02-26T16:23:28.321Z,72.60
2019-02-26T16:26:01.404Z,73.50
2019-02-26T16:28:34.983Z,74.20
2019-02-26T16:31:10.135Z,74.40
2019-02-26T16:33:46.699Z,75.20
2019-02-26T16:36:20.981Z,74.80
2019-02-26T16:38:55.474Z,74.80
2019-02-26T16:41:29.135Z,74.90
2019-02-26T16:44:02.530Z,75.20
2019-02-26T16:46:36.191Z,74.90
2019-02-26T16:49:09.868Z,75.40
2019-02-26T16:51:42.881Z,75.20
2019-02-26T16:54:15.825Z,75.50
2019-02-26T16:56:49.456Z,75.70
2019-02-26T16:59:22.880Z,76.30
2019-02-26T17:01:56.246Z,76.60
2019-02-26T17:04:30.943Z,77.60
2019-02-26T17:07:04.286Z,77.40
2019-02-26T17:09:37.528Z,77.50
2019-02-26T17:12:10.895Z,78.10
2019-02-26T17:14:44.804Z,78.40
2019-02-26T17:17:18.199Z,78.80
2019-02-26T17:19:51.885Z,79.40
2019-02-26T17:22:25.523Z,80.20
2019-02-26T17:24:59.230Z,80.70
2019-02-26T17:27:32.795Z,81.40
2019-02-26T17:30:06.236Z,82.00
2019-02-26T17:32:39.551Z,82.70
2019-02-26T17:35:13.113Z,83.30
2019-02-26T17:37:46.588Z,83.70
2019-02-26T17:40:20.273Z,84.20
2019-02-26T17:42:54.629Z,84.60
2019-02-26T17:45:27.609Z,84.60
2019-02-26T17:48:01.208Z,84.90
2019-02-26T17:50:36.355Z,85.20
2019-02-26T17:53:10.132Z,85.60
2019-02-26T17:55:43.459Z,85.40
2019-02-26T17:58:16.897Z,85.50
2019-02-26T18:00:56.043Z,85.60
2019-02-26T18:03:29.446Z,85.50
2019-02-26T18:06:02.832Z,85.10
2019-02-26T18:08:35.804Z,84.90
2019-02-26T18:11:23.359Z,85.00
2019-02-26T18:13:54.145Z,85.10
2019-02-26T18:16:27.322Z,85.30
2019-02-26T18:19:00.543Z,85.30
2019-02-26T18:21:33.688Z,85.30
2019-02-26T18:24:07.279Z,85.60
2019-02-26T18:26:40.391Z,85.70
2019-02-26T18:29:14.174Z,85.90
2019-02-26T18:31:47.260Z,85.90
2019-02-26T18:34:20.659Z,86.20
2019-02-26T18:36:54.189Z,86.70
2019-02-26T18:39:27.972Z,86.60
2019-02-26T18:42:01.416Z,86.60
2019-02-26T18:44:34.585Z,86.50
2019-02-26T18:47:08.191Z,86.40
2019-02-26T18:49:41.619Z,86.60
2019-02-26T18:52:15.010Z,86.60
2019-02-26T18:54:47.950Z,86.70
2019-02-26T18:57:21.523Z,87.20
2019-02-26T18:59:54.783Z,87.90
2019-02-26T19:02:29.394Z,88.20
2019-02-26T19:05:02.491Z,88.80
2019-02-26T19:07:35.773Z,89.20
2019-02-26T19:10:11.350Z,89.60
2019-02-26T19:12:44.778Z,90.10
2019-02-26T19:15:19.256Z,90.20
2019-02-26T19:17:53.844Z,90.20
2019-02-26T19:20:31.236Z,90.40
2019-02-26T19:23:04.316Z,90.40
2019-02-26T19:25:41.423Z,90.60
2019-02-26T19:28:11.913Z,90.70
2019-02-26T19:30:45.740Z,90.90
2019-02-26T19:33:21.677Z,91.00
2019-02-26T19:35:55.186Z,91.20
2019-02-26T19:38:28.377Z,91.30
2019-02-26T19:41:05.324Z,91.40
2019-02-26T19:43:38.859Z,91.70
2019-02-26T19:46:14.641Z,91.90
2019-02-26T19:48:47.109Z,91.90
2019-02-26T19:51:22.883Z,92.00
2019-02-26T19:53:55.222Z,91.90
2019-02-26T19:56:28.748Z,92.00
2019-02-26T19:59:01.990Z,92.20
2019-02-26T20:01:35.541Z,92.30
2019-02-26T20:04:08.954Z,92.40
2019-02-26T20:06:43.912Z,92.80
2019-02-26T20:09:18.791Z,92.50
2019-02-26T20:11:53.613Z,92.60
2019-02-26T20:14:28.278Z,92.80
2019-02-26T20:17:13.642Z,92.90
2019-02-26T20:19:37.915Z,92.80
2019-02-26T20:22:11.172Z,93.00
2019-02-26T20:24:45.402Z,92.80
2019-02-26T20:27:21.609Z,93.30
2019-02-26T20:29:54.078Z,93.40
2019-02-26T20:32:30.847Z,93.60
2019-02-26T20:35:03.428Z,93.90
2019-02-26T20:37:36.712Z,93.90
2019-02-26T20:40:15.780Z,94.10
2019-02-26T20:42:47.081Z,94.70
2019-02-26T20:45:22.539Z,94.80
2019-02-26T20:47:55.460Z,94.70
2019-02-26T20:50:28.697Z,94.70
2019-02-26T20:53:05.707Z,94.90
2019-02-26T20:55:37.288Z,94.60
2019-02-26T20:58:12.420Z,94.80
2019-02-26T21:00:45.225Z,95.60
2019-02-26T21:03:18.379Z,95.80
2019-02-26T21:05:51.610Z,95.40
2019-02-26T21:08:24.779Z,95.30
2019-02-26T21:10:57.907Z,95.50
2019-02-26T21:13:34.654Z,95.70
2019-02-26T21:16:05.384Z,96.00
2019-02-26T21:18:39.379Z,95.70
2019-02-26T21:21:14.075Z,95.90
2019-02-26T21:23:47.822Z,95.60
2019-02-26T21:26:20.928Z,95.50
2019-02-26T21:28:54.331Z,95.30
2019-02-26T21:31:27.648Z,95.30
2019-02-26T21:34:03.647Z,95.20
2019-02-26T21:36:35.529Z,94.90
2019-02-26T21:39:11.085Z,94.90
2019-02-26T21:41:44.587Z,95.10
2019-02-26T21:44:17.660Z,94.70
2019-02-26T21:46:50.823Z,94.80
2019-02-26T21:49:24.399Z,94.70
2019-02-26T21:51:58.014Z,94.70
2019-02-26T21:54:31.137Z,94.90
2019-02-26T21:57:04.199Z,95.10
2019-02-26T21:59:37.375Z,95.20
2019-02-26T22:02:10.575Z,95.40
2019-02-26T22:04:43.633Z,95.60
2019-02-26T22:07:19.177Z,95.70
2019-02-26T22:09:51.843Z,95.80
2019-02-26T22:12:25.343Z,96.10
2019-02-26T22:14:58.691Z,96.10
2019-02-26T22:17:32.743Z,96.30
2019-02-26T22:20:09.187Z,96.20
2019-02-26T22:22:41.529Z,96.30
2019-02-26T22:25:17.044Z,96.30
2019-02-26T22:27:50.958Z,96.30
2019-02-26T22:30:23.927Z,96.10
2019-02-26T22:32:57.221Z,96.10
2019-02-26T22:35:31.310Z,96.10
2019-02-26T22:38:04.440Z,95.80
2019-02-26T22:40:37.470Z,95.80
2019-02-26T22:43:13.365Z,96.10
2019-02-26T22:45:45.249Z,96.30
2019-02-26T22:48:18.367Z,96.50
2019-02-26T22:50:51.950Z,96.50
2019-02-26T22:53:25.135Z,96.40
2019-02-26T22:55:57.952Z,96.70
2019-02-26T22:58:31.070Z,96.80
2019-02-26T23:01:30.833Z,97.00
2019-02-26T23:04:04.075Z,96.80
2019-02-26T23:06:37.595Z,96.70
2019-02-26T23:09:21.976Z,96.60
2019-02-26T23:11:54.912Z,96.80
2019-02-26T23:14:28.043Z,96.80
2019-02-26T23:17:02.161Z,96.90
2019-02-26T23:19:37.133Z,96.80
2019-02-26T23:22:10.834Z,96.70
2019-02-26T23:24:44.693Z,96.60
2019-02-26T23:27:17.992Z,96.50
2019-02-26T23:29:51.193Z,96.20
2019-02-26T23:32:24.992Z,95.80
2019-02-26T23:35:10.130Z,95.80
2019-02-26T23:37:43.186Z,95.40
2019-02-26T23:40:16.364Z,95.40
2019-02-26T23:42:50.023Z,95.60
2019-02-26T23:45:24.147Z,95.60
2019-02-26T23:47:57.833Z,95.60
2019-02-26T23:50:30.679Z,95.80
2019-02-26T23:53:03.425Z,96.00
2019-02-26T23:55:36.443Z,96.10
2019-02-26T23:58:09.727Z,96.10
